Time;durP1;ratioP1;P1;durP2;ratioP2;P2;SDS_P1;SDS_P2;PMS_P1;PMS_P2;Temp;Humidity;BMP_temperature;BMP_pressure;BME280_temperature;BME280_humidity;BME280_pressure;Samples;Min_cycle;Max_cycle;Signal;HPM_P1;HPM_P2
2023/08/22 00:01:09;;;;;;;2.70;1.50;;;27.30;56.00;;;;;;2342246;54;21080;-67
2023/08/22 00:03:37;;;;;;;2.70;1.60;;;27.30;55.90;;;;;;2559879;53;21674;-66
2023/08/22 00:06:04;;;;;;;3.55;1.80;;;27.30;56.00;;;;;;2583553;53;20969;-67
2023/08/22 00:08:30;;;;;;;2.90;1.50;;;27.30;56.20;;;;;;2318123;54;20958;-70
2023/08/22 00:10:57;;;;;;;3.53;1.65;;;27.20;56.10;;;;;;2343984;54;20988;-67
2023/08/22 00:13:24;;;;;;;2.85;1.50;;;27.20;56.10;;;;;;2588153;53;21029;-68
2023/08/22 00:15:56;;;;;;;2.42;1.33;;;27.20;56.10;;;;;;2587522;53;20964;-70
2023/08/22 00:18:23;;;;;;;2.65;1.50;;;27.20;56.10;;;;;;2318401;55;20937;-67
2023/08/22 00:20:49;;;;;;;2.92;1.60;;;27.20;56.70;;;;;;2587303;53;20953;-68
2023/08/22 00:23:16;;;;;;;2.80;1.40;;;27.10;56.10;;;;;;2343975;54;21157;-68
2023/08/22 00:25:45;;;;;;;2.87;1.48;;;27.10;56.00;;;;;;2341824;54;20964;-69
2023/08/22 00:28:11;;;;;;;3.47;1.50;;;27.10;56.40;;;;;;2588501;53;20973;-68
2023/08/22 00:30:38;;;;;;;3.90;1.70;;;27.00;56.50;;;;;;2588531;53;20941;-68
2023/08/22 00:33:05;;;;;;;4.35;1.70;;;27.00;56.50;;;;;;2342002;54;21001;-70
2023/08/22 00:35:31;;;;;;;3.75;1.70;;;27.00;56.40;;;;;;2341724;54;21290;-68
2023/08/22 00:37:58;;;;;;;3.00;1.50;;;26.90;56.50;;;;;;2585978;53;21391;-69
2023/08/22 00:40:24;;;;;;;3.33;1.62;;;26.90;56.50;;;;;;2556301;53;20960;-68
2023/08/22 00:42:50;;;;;;;3.53;1.60;;;26.90;56.50;;;;;;2341481;54;21579;-68
2023/08/22 00:45:17;;;;;;;2.62;1.45;;;26.80;56.50;;;;;;2315649;54;20969;-68
2023/08/22 00:47:44;;;;;;;3.90;1.70;;;26.80;56.60;;;;;;2340649;54;20954;-70
2023/08/22 00:50:10;;;;;;;2.60;1.33;;;26.80;56.60;;;;;;2588728;53;20929;-69
2023/08/22 00:52:40;;;;;;;3.00;1.55;;;26.80;56.80;;;;;;2587899;53;20925;-68
2023/08/22 00:55:07;;;;;;;2.53;1.33;;;26.70;56.70;;;;;;2342041;54;21044;-69
2023/08/22 00:57:34;;;;;;;2.47;1.23;;;26.70;56.80;;;;;;2556344;53;20973;-69
2023/08/22 01:00:10;;;;;;;2.85;1.30;;;26.70;56.70;;;;;;2340385;54;20937;-68
2023/08/22 01:02:39;;;;;;;2.78;1.35;;;26.70;56.90;;;;;;2342044;54;20937;-69
2023/08/22 01:05:06;;;;;;;2.55;1.50;;;26.70;56.90;;;;;;2341841;54;20929;-69
2023/08/22 01:07:48;;;;;;;3.20;1.42;;;26.60;56.80;;;;;;2341876;54;21307;-68
2023/08/22 01:10:20;;;;;;;2.70;1.30;;;26.60;56.90;;;;;;2336878;54;20998;-68
2023/08/22 01:13:02;;;;;;;2.97;1.70;;;26.60;56.90;;;;;;2563466;53;20992;-68
2023/08/22 01:15:28;;;;;;;2.90;1.55;;;26.60;56.90;;;;;;2560190;53;21501;-68
2023/08/22 01:17:56;;;;;;;2.60;1.40;;;26.60;56.90;;;;;;2341477;54;21581;-69
2023/08/22 01:20:24;;;;;;;2.90;1.35;;;26.60;57.10;;;;;;2528038;54;21016;-71
2023/08/22 01:22:51;;;;;;;5.03;1.70;;;26.50;57.00;;;;;;2322671;54;20932;-71
2023/08/22 01:25:17;;;;;;;2.65;1.67;;;26.50;57.00;;;;;;2556669;53;20949;-70
2023/08/22 01:28:20;;;;;;;2.70;1.70;;;26.50;56.90;;;;;;2556180;53;21793;-69
2023/08/22 01:31:20;;;;;;;2.50;1.40;;;26.50;57.50;;;;;;2328979;54;20963;-70
2023/08/22 01:34:04;;;;;;;3.05;1.50;;;26.40;57.20;;;;;;2343272;54;21596;-70
2023/08/22 01:36:30;;;;;;;2.78;1.52;;;26.40;57.20;;;;;;2341672;54;21077;-69
2023/08/22 01:38:56;;;;;;;2.55;1.30;;;26.20;56.90;;;;;;2341474;54;20925;-67
2023/08/22 01:41:23;;;;;;;3.35;1.80;;;26.30;57.20;;;;;;2342470;54;20940;-69
2023/08/22 01:43:54;;;;;;;3.80;1.77;;;26.30;57.40;;;;;;2344703;54;20949;-70
2023/08/22 01:46:21;;;;;;;3.25;1.70;;;26.30;57.50;;;;;;2316781;54;20957;-71
2023/08/22 01:48:47;;;;;;;2.97;1.60;;;26.30;57.40;;;;;;2341659;54;21775;-68
2023/08/22 01:51:14;;;;;;;4.28;1.70;;;26.30;57.50;;;;;;2339411;54;21078;-71
2023/08/22 01:53:41;;;;;;;3.00;1.60;;;26.20;57.50;;;;;;2300739;55;20929;-69
2023/08/22 01:56:08;;;;;;;3.12;1.60;;;26.20;57.50;;;;;;2340224;54;21000;-68
2023/08/22 01:58:34;;;;;;;5.00;1.60;;;26.20;57.50;;;;;;2341253;54;20972;-68
2023/08/22 02:01:11;;;;;;;3.80;1.80;;;26.20;57.60;;;;;;2341488;54;21033;-69
2023/08/22 02:03:40;;;;;;;2.87;1.40;;;26.20;57.70;;;;;;2341842;54;21080;-70
2023/08/22 02:06:07;;;;;;;3.03;1.37;;;26.20;57.60;;;;;;2341515;54;20968;-68
2023/08/22 02:08:34;;;;;;;3.22;1.65;;;26.10;57.50;;;;;;2342152;54;20999;-69
2023/08/22 02:11:00;;;;;;;4.60;1.90;;;26.10;57.70;;;;;;2588100;53;21056;-68
2023/08/22 02:13:27;;;;;;;3.75;1.60;;;26.10;57.70;;;;;;2341787;54;20933;-70
2023/08/22 02:15:53;;;;;;;3.83;1.50;;;26.10;57.80;;;;;;2587621;53;21454;-70
2023/08/22 02:18:20;;;;;;;3.05;1.80;;;26.10;57.80;;;;;;2587966;53;21004;-69
2023/08/22 02:20:51;;;;;;;2.97;1.73;;;26.00;57.70;;;;;;2340393;54;20951;-68
2023/08/22 02:23:17;;;;;;;2.60;1.30;;;26.00;57.80;;;;;;2338799;54;20970;-68
2023/08/22 02:25:44;;;;;;;4.05;1.83;;;26.00;57.70;;;;;;2563576;53;21375;-69
2023/08/22 02:28:11;;;;;;;2.87;1.67;;;26.00;57.80;;;;;;2587491;53;20968;-68
2023/08/22 02:30:37;;;;;;;3.53;1.70;;;25.90;57.80;;;;;;2588184;53;21072;-69
2023/08/22 02:33:04;;;;;;;3.65;1.83;;;25.90;57.80;;;;;;2340724;54;21024;-67
2023/08/22 02:35:31;;;;;;;2.70;1.80;;;25.90;57.90;;;;;;2559289;53;20975;-68
2023/08/22 02:37:58;;;;;;;3.05;1.62;;;25.90;57.90;;;;;;2341839;54;22121;-68
2023/08/22 02:40:25;;;;;;;2.85;1.62;;;25.90;57.90;;;;;;2587971;53;21036;-69
2023/08/22 02:42:55;;;;;;;3.03;1.65;;;25.90;57.90;;;;;;2586706;53;21182;-68
2023/08/22 02:45:22;;;;;;;2.90;1.50;;;25.90;58.00;;;;;;2330443;54;21302;-69
2023/08/22 02:47:49;;;;;;;2.85;1.48;;;25.80;57.90;;;;;;2572515;53;20909;-69
2023/08/22 02:50:16;;;;;;;4.32;1.58;;;25.80;58.00;;;;;;2588187;53;21017;-71
2023/08/22 02:52:43;;;;;;;3.20;1.75;;;25.80;58.00;;;;;;2341628;54;21771;-69
2023/08/22 02:55:09;;;;;;;3.10;1.80;;;25.80;58.20;;;;;;2341361;54;21264;-70
2023/08/22 02:57:35;;;;;;;2.90;1.75;;;25.80;58.20;;;;;;2587730;53;20988;-72
2023/08/22 03:00:04;;;;;;;3.12;1.58;;;25.70;58.20;;;;;;2341952;54;21000;-68
2023/08/22 03:02:31;;;;;;;3.20;1.70;;;25.70;58.20;;;;;;2341445;54;20979;-69
2023/08/22 03:04:58;;;;;;;3.00;1.48;;;25.70;58.20;;;;;;2341610;54;20980;-69
2023/08/22 03:07:25;;;;;;;4.10;1.85;;;25.70;58.80;;;;;;2341809;54;21024;-71
2023/08/22 03:09:52;;;;;;;3.55;1.70;;;25.70;58.20;;;;;;2588280;53;20957;-69
2023/08/22 03:12:18;;;;;;;2.87;1.65;;;25.70;58.30;;;;;;2337449;54;20952;-71
2023/08/22 03:14:45;;;;;;;3.47;1.70;;;25.70;58.30;;;;;;2340718;54;21003;-68
2023/08/22 03:17:12;;;;;;;3.78;2.12;;;25.70;58.30;;;;;;2576600;53;20998;-70
2023/08/22 03:19:38;;;;;;;3.15;1.80;;;25.60;58.30;;;;;;2307359;55;21422;-67
2023/08/22 03:22:06;;;;;;;2.85;1.77;;;25.60;58.30;;;;;;2332353;54;20944;-68
2023/08/22 03:24:33;;;;;;;3.10;1.80;;;25.60;58.40;;;;;;2587176;53;20916;-66
2023/08/22 03:26:59;;;;;;;3.25;1.80;;;25.60;58.30;;;;;;2341483;54;20948;-66
2023/08/22 03:29:25;;;;;;;2.62;1.40;;;25.60;58.40;;;;;;2341468;54;20969;-69
2023/08/22 03:31:52;;;;;;;3.20;1.70;;;25.50;58.30;;;;;;2341555;54;21642;-69
2023/08/22 03:34:18;;;;;;;2.95;1.65;;;25.50;58.30;;;;;;2342030;54;21229;-70
2023/08/22 03:36:44;;;;;;;2.60;1.40;;;25.50;58.40;;;;;;2341511;54;21060;-68
2023/08/22 03:39:11;;;;;;;3.40;1.70;;;25.50;58.40;;;;;;2341539;54;21066;-68
2023/08/22 03:41:38;;;;;;;3.53;1.77;;;25.40;58.30;;;;;;2341330;54;21063;-65
2023/08/22 03:44:05;;;;;;;3.08;1.65;;;25.40;58.40;;;;;;2587934;53;21031;-68
2023/08/22 03:46:31;;;;;;;3.58;1.65;;;25.40;58.50;;;;;;2588771;53;21004;-70
2023/08/22 03:49:03;;;;;;;2.50;1.40;;;25.40;58.50;;;;;;2588364;53;21438;-67
2023/08/22 03:51:30;;;;;;;2.67;1.55;;;25.40;58.50;;;;;;2342405;54;20917;-68
2023/08/22 03:53:56;;;;;;;4.47;1.60;;;25.40;58.50;;;;;;2341226;54;20968;-66
2023/08/22 03:56:23;;;;;;;3.67;1.77;;;25.30;58.50;;;;;;2587174;53;21418;-68
2023/08/22 03:58:49;;;;;;;2.37;1.30;;;25.30;58.50;;;;;;2341485;54;21417;-68
2023/08/22 04:01:17;;;;;;;2.53;1.45;;;25.30;58.50;;;;;;2327061;54;20963;-67
2023/08/22 04:03:43;;;;;;;3.17;1.67;;;25.30;58.60;;;;;;2578392;53;20989;-67
2023/08/22 04:06:10;;;;;;;3.10;1.77;;;25.20;58.60;;;;;;2341058;54;20964;-70
2023/08/22 04:08:37;;;;;;;3.72;1.80;;;25.20;58.60;;;;;;2341468;54;20956;-68
2023/08/22 04:11:04;;;;;;;2.85;1.45;;;25.20;58.70;;;;;;2588032;53;20937;-68
2023/08/22 04:13:30;;;;;;;2.65;1.40;;;25.20;58.80;;;;;;2588091;53;21406;-72
2023/08/22 04:15:56;;;;;;;4.45;1.80;;;25.20;58.70;;;;;;2588115;53;20916;-71
2023/08/22 04:18:23;;;;;;;4.18;1.60;;;25.10;58.70;;;;;;2341789;54;20954;-69
2023/08/22 04:20:49;;;;;;;2.78;1.50;;;25.10;58.70;;;;;;2587878;53;20961;-69
2023/08/22 04:23:15;;;;;;;3.62;1.95;;;25.10;58.70;;;;;;2341794;54;21052;-67
2023/08/22 04:25:42;;;;;;;3.10;1.55;;;25.10;58.80;;;;;;2340885;54;21012;-66
2023/08/22 04:28:09;;;;;;;3.70;1.62;;;25.00;59.40;;;;;;2342097;54;20953;-67
2023/08/22 04:30:35;;;;;;;3.03;1.65;;;25.00;58.80;;;;;;2341313;54;20968;-69
2023/08/22 04:33:01;;;;;;;3.95;1.60;;;25.00;58.90;;;;;;2587729;53;21099;-67
2023/08/22 04:35:28;;;;;;;3.25;1.60;;;25.00;58.90;;;;;;2587629;53;20928;-68
2023/08/22 04:37:55;;;;;;;3.50;1.58;;;25.00;59.00;;;;;;2337881;54;20966;-69
2023/08/22 04:40:23;;;;;;;2.95;1.55;;;25.00;59.10;;;;;;2321313;54;21036;-67
2023/08/22 04:42:51;;;;;;;2.65;1.50;;;25.00;59.10;;;;;;2587712;53;20949;-67
2023/08/22 04:45:19;;;;;;;4.12;1.50;;;25.00;59.20;;;;;;2309863;54;20963;-67
2023/08/22 04:47:46;;;;;;;2.95;1.52;;;25.00;59.30;;;;;;2549324;54;20931;-68
2023/08/22 04:50:12;;;;;;;3.12;1.60;;;24.90;59.20;;;;;;2548809;54;21756;-67
2023/08/22 04:52:38;;;;;;;3.37;1.83;;;24.90;59.20;;;;;;2548704;54;20943;-66
2023/08/22 04:55:05;;;;;;;2.33;1.33;;;24.90;59.20;;;;;;2548864;54;21047;-66
2023/08/22 04:57:32;;;;;;;2.85;1.60;;;24.90;59.20;;;;;;2548756;54;20951;-68
2023/08/22 04:59:58;;;;;;;3.37;1.30;;;24.90;59.20;;;;;;2309333;54;21377;-67
2023/08/22 05:02:24;;;;;;;3.58;1.75;;;24.90;59.30;;;;;;2309598;54;20948;-70
2023/08/22 05:04:51;;;;;;;2.70;1.30;;;24.90;59.30;;;;;;2309605;54;21019;-68
2023/08/22 05:07:18;;;;;;;3.33;1.90;;;24.90;59.30;;;;;;2546945;54;20970;-67
2023/08/22 05:09:44;;;;;;;3.25;1.50;;;24.90;59.50;;;;;;2513466;54;20963;-68
2023/08/22 05:12:11;;;;;;;3.05;1.65;;;24.90;59.50;;;;;;2542494;53;20944;-67
2023/08/22 05:14:39;;;;;;;2.92;1.70;;;24.90;59.50;;;;;;2302941;55;20997;-67
2023/08/22 05:17:07;;;;;;;4.50;1.77;;;24.90;59.50;;;;;;2531516;53;21468;-67
2023/08/22 05:19:33;;;;;;;2.92;1.80;;;24.90;59.60;;;;;;2308999;55;20930;-69
2023/08/22 05:22:00;;;;;;;3.62;1.80;;;24.90;59.70;;;;;;2308770;55;21465;-67
2023/08/22 05:24:27;;;;;;;3.30;1.77;;;24.90;59.70;;;;;;2548492;54;20938;-68
2023/08/22 05:26:53;;;;;;;5.57;1.90;;;24.90;59.70;;;;;;2309035;55;20933;-70
2023/08/22 05:29:20;;;;;;;3.35;1.90;;;24.90;59.70;;;;;;2548052;54;21000;-67
2023/08/22 05:31:46;;;;;;;4.10;1.95;;;24.90;59.70;;;;;;2547941;54;20984;-67
2023/08/22 05:34:13;;;;;;;2.80;1.62;;;24.90;59.70;;;;;;2548380;54;20965;-66
2023/08/22 05:36:39;;;;;;;2.87;1.70;;;24.90;59.80;;;;;;2542270;54;20948;-68
2023/08/22 05:39:06;;;;;;;2.62;1.40;;;24.90;59.80;;;;;;2543843;53;20952;-69
2023/08/22 05:41:33;;;;;;;2.65;1.60;;;24.90;59.80;;;;;;2565436;53;20993;-69
2023/08/22 05:44:00;;;;;;;2.87;1.67;;;24.90;60.00;;;;;;2548163;54;20983;-68
2023/08/22 05:46:26;;;;;;;4.07;1.90;;;24.90;60.10;;;;;;2537438;53;20947;-69
2023/08/22 05:48:53;;;;;;;3.90;1.90;;;24.90;60.20;;;;;;2301426;54;20981;-68
2023/08/22 05:51:22;;;;;;;3.90;2.10;;;24.90;60.30;;;;;;2309158;55;21503;-68
2023/08/22 05:53:51;;;;;;;2.70;1.75;;;24.90;60.30;;;;;;2554358;53;20921;-69
2023/08/22 05:56:17;;;;;;;3.10;1.90;;;24.90;60.30;;;;;;2341925;54;21818;-68
2023/08/22 05:58:44;;;;;;;3.83;2.30;;;25.00;60.40;;;;;;2586452;53;20984;-70
2023/08/22 06:01:10;;;;;;;4.22;1.90;;;25.00;60.60;;;;;;2341927;54;20913;-70
2023/08/22 06:03:38;;;;;;;4.87;2.15;;;25.00;60.60;;;;;;2587395;53;21478;-68
2023/08/22 06:06:05;;;;;;;3.70;2.22;;;25.00;60.70;;;;;;2588339;53;21001;-67
2023/08/22 06:08:31;;;;;;;4.05;2.33;;;25.00;60.80;;;;;;2587069;53;21470;-69
2023/08/22 06:10:57;;;;;;;5.00;2.28;;;25.00;60.90;;;;;;2588131;53;20989;-67
2023/08/22 06:13:24;;;;;;;4.53;2.58;;;25.10;60.90;;;;;;2563455;53;21012;-69
2023/08/22 06:15:50;;;;;;;4.00;2.30;;;25.10;61.00;;;;;;2340616;54;20940;-72
2023/08/22 06:18:17;;;;;;;3.60;2.30;;;25.20;61.20;;;;;;2341602;54;20988;-71
2023/08/22 06:20:44;;;;;;;3.75;2.17;;;25.20;61.20;;;;;;2341311;54;20964;-70
2023/08/22 06:23:10;;;;;;;4.60;2.53;;;25.20;61.20;;;;;;2562521;53;1375291;-68
2023/08/22 06:25:38;;;;;;;3.95;2.35;;;25.30;61.40;;;;;;2341757;54;21041;-65
2023/08/22 06:28:07;;;;;;;4.75;2.47;;;25.30;61.40;;;;;;2341906;54;21799;-69
2023/08/22 06:30:33;;;;;;;4.35;2.33;;;25.30;61.40;;;;;;2587604;53;21007;-67
2023/08/22 06:33:00;;;;;;;3.53;1.87;;;25.40;61.50;;;;;;2341590;54;20941;-68
2023/08/22 06:35:28;;;;;;;4.18;2.50;;;25.40;61.50;;;;;;2341268;54;20956;-68
2023/08/22 06:37:54;;;;;;;3.97;2.00;;;25.40;61.60;;;;;;2547849;54;20928;-69
2023/08/22 06:40:22;;;;;;;4.70;2.22;;;25.50;61.70;;;;;;2309805;54;20943;-70
2023/08/22 06:42:49;;;;;;;3.90;2.33;;;25.60;61.80;;;;;;2309161;54;21323;-69
2023/08/22 06:45:15;;;;;;;4.03;2.58;;;25.60;61.90;;;;;;2548304;54;21342;-68
2023/08/22 06:47:42;;;;;;;4.87;2.55;;;25.60;61.90;;;;;;2309223;54;21023;-70
2023/08/22 06:50:09;;;;;;;3.40;2.30;;;25.70;61.90;;;;;;2309528;54;20975;-69
2023/08/22 06:52:35;;;;;;;4.57;2.25;;;25.70;61.90;;;;;;2544934;54;20968;-68
2023/08/22 06:55:02;;;;;;;4.93;2.28;;;25.80;61.90;;;;;;2302393;54;20923;-67
2023/08/22 06:57:28;;;;;;;3.70;2.20;;;25.80;61.80;;;;;;2309495;54;21133;-67
2023/08/22 06:59:55;;;;;;;3.70;2.08;;;25.90;61.80;;;;;;2309428;54;21047;-68
2023/08/22 07:02:21;;;;;;;3.95;2.15;;;25.90;61.70;;;;;;2547968;54;20995;-69
2023/08/22 07:04:49;;;;;;;3.85;2.30;;;26.00;61.80;;;;;;2546675;54;20972;-70
2023/08/22 07:07:15;;;;;;;3.03;1.90;;;26.00;61.70;;;;;;2548115;54;20995;-69
2023/08/22 07:09:42;;;;;;;3.30;2.10;;;26.10;61.70;;;;;;2309454;54;21019;-67
2023/08/22 07:12:10;;;;;;;3.50;2.12;;;26.20;61.70;;;;;;2309640;54;21022;-67
2023/08/22 07:14:42;;;;;;;3.65;2.05;;;26.30;61.70;;;;;;2308164;54;20927;-67
2023/08/22 07:17:09;;;;;;;4.00;2.60;;;26.30;61.60;;;;;;2309833;54;20943;-68
2023/08/22 07:19:38;;;;;;;3.80;2.35;;;26.40;61.70;;;;;;2309247;54;20932;-71
2023/08/22 07:22:07;;;;;;;3.87;1.75;;;26.40;61.70;;;;;;2548920;54;20956;-68
2023/08/22 07:24:33;;;;;;;3.17;1.98;;;26.50;61.60;;;;;;2309953;54;20999;-69
2023/08/22 07:27:00;;;;;;;5.07;2.25;;;26.60;61.60;;;;;;2309690;54;20971;-67
2023/08/22 07:29:27;;;;;;;2.95;1.85;;;26.70;61.70;;;;;;2310067;54;20979;-69
2023/08/22 07:31:58;;;;;;;3.83;2.25;;;26.70;61.60;;;;;;2309985;54;20958;-71
2023/08/22 07:34:24;;;;;;;3.30;2.05;;;26.80;61.60;;;;;;2342272;54;20924;-67
2023/08/22 07:36:54;;;;;;;4.32;2.40;;;26.90;61.60;;;;;;2342046;54;21123;-68
2023/08/22 07:39:21;;;;;;;3.70;2.53;;;26.90;61.50;;;;;;2342618;54;21075;-67
2023/08/22 07:41:50;;;;;;;3.40;2.20;;;27.00;61.70;;;;;;2587975;53;20936;-67
2023/08/22 07:44:18;;;;;;;4.03;2.30;;;27.10;61.70;;;;;;2342136;54;20968;-68
2023/08/22 07:46:44;;;;;;;4.75;2.37;;;27.10;61.60;;;;;;2324408;54;20938;-66
2023/08/22 07:49:11;;;;;;;4.15;2.62;;;27.20;61.50;;;;;;2586127;53;20956;-68
2023/08/22 07:51:37;;;;;;;3.80;2.35;;;27.30;61.50;;;;;;2589183;53;21441;-69
2023/08/22 07:54:04;;;;;;;4.03;2.55;;;27.30;61.50;;;;;;2588482;53;21365;-68
2023/08/22 07:56:30;;;;;;;7.18;2.83;;;27.40;61.60;;;;;;2341987;54;21462;-69
2023/08/22 07:58:57;;;;;;;3.97;2.53;;;27.50;61.60;;;;;;2341779;54;21383;-69
2023/08/22 08:01:23;;;;;;;3.70;2.40;;;27.60;62.30;;;;;;2342122;54;21517;-68
2023/08/22 08:03:50;;;;;;;4.20;2.40;;;27.70;61.70;;;;;;2341586;54;21116;-69
2023/08/22 08:06:16;;;;;;;4.22;2.78;;;27.70;61.60;;;;;;2587439;53;20977;-69
2023/08/22 08:08:44;;;;;;;4.28;2.70;;;27.80;61.80;;;;;;2587306;53;21031;-69
2023/08/22 08:11:11;;;;;;;4.18;2.70;;;27.80;61.70;;;;;;2341801;54;20956;-68
2023/08/22 08:13:38;;;;;;;5.80;3.28;;;28.00;61.80;;;;;;2330233;54;20979;-67
2023/08/22 08:16:06;;;;;;;4.95;2.87;;;28.00;62.10;;;;;;2307045;55;20997;-68
2023/08/22 08:18:33;;;;;;;4.22;2.95;;;28.10;62.00;;;;;;2344017;54;21012;-68
2023/08/22 08:21:00;;;;;;;4.68;2.50;;;28.20;61.90;;;;;;2341715;54;21738;-71
2023/08/22 08:23:26;;;;;;;4.07;2.87;;;28.20;61.80;;;;;;2341862;54;21505;-68
2023/08/22 08:25:53;;;;;;;4.12;2.58;;;28.30;61.70;;;;;;2587538;53;21004;-66
2023/08/22 08:28:19;;;;;;;3.90;2.67;;;28.40;61.50;;;;;;2587925;53;20949;-68
2023/08/22 08:30:45;;;;;;;4.62;3.10;;;28.50;61.40;;;;;;2340929;54;20913;-69
2023/08/22 08:33:13;;;;;;;3.80;2.60;;;28.50;61.20;;;;;;2340733;54;21015;-69
2023/08/22 08:35:39;;;;;;;5.43;2.90;;;28.60;61.10;;;;;;2586965;53;21033;-70
2023/08/22 08:38:07;;;;;;;4.30;2.87;;;28.70;61.00;;;;;;2341205;54;21425;-69
2023/08/22 08:40:35;;;;;;;4.75;2.55;;;28.70;60.70;;;;;;2340928;54;21419;-70
2023/08/22 08:43:03;;;;;;;4.25;3.10;;;28.80;60.70;;;;;;2579923;53;21058;-70
2023/08/22 08:45:34;;;;;;;4.10;2.50;;;28.90;60.70;;;;;;2562391;53;21042;-68
2023/08/22 08:48:00;;;;;;;4.50;2.92;;;29.00;60.60;;;;;;2586583;53;21458;-68
2023/08/22 08:50:27;;;;;;;4.45;3.20;;;29.00;60.50;;;;;;2553900;53;21036;-69
2023/08/22 08:52:54;;;;;;;4.10;2.72;;;29.10;60.30;;;;;;2586980;53;21380;-69
2023/08/22 08:55:20;;;;;;;4.60;2.60;;;29.10;60.00;;;;;;2341883;54;20944;-71
2023/08/22 08:57:47;;;;;;;4.32;3.10;;;29.20;59.90;;;;;;2341337;54;20957;-68
2023/08/22 09:00:17;;;;;;;5.22;3.15;;;29.20;59.90;;;;;;2341585;54;20965;-68
2023/08/22 09:02:44;;;;;;;3.87;2.87;;;29.30;59.90;;;;;;2341183;54;20964;-68
2023/08/22 09:05:11;;;;;;;4.90;2.87;;;29.30;59.70;;;;;;2587632;53;21944;-68
2023/08/22 09:07:41;;;;;;;4.78;2.67;;;29.40;59.80;;;;;;2585924;53;20932;-70
2023/08/22 09:10:19;;;;;;;4.03;2.78;;;29.50;59.70;;;;;;2556516;53;20949;-70
2023/08/22 09:12:46;;;;;;;3.80;2.78;;;29.60;59.80;;;;;;2586470;53;21054;-71
2023/08/22 09:15:17;;;;;;;4.25;2.60;;;29.60;59.80;;;;;;2585969;53;21016;-67
2023/08/22 09:17:43;;;;;;;4.25;2.62;;;29.70;59.70;;;;;;2586421;53;21004;-70
2023/08/22 09:20:10;;;;;;;4.97;2.50;;;29.80;59.80;;;;;;2587365;53;21428;-70
2023/08/22 09:22:37;;;;;;;3.70;2.60;;;29.80;59.60;;;;;;2586987;53;20937;-68
2023/08/22 09:25:07;;;;;;;4.45;3.03;;;29.90;59.40;;;;;;2340853;54;20980;-69
2023/08/22 09:27:33;;;;;;;4.32;3.03;;;30.00;59.30;;;;;;2579107;53;21058;-68
2023/08/22 09:30:04;;;;;;;3.37;2.50;;;30.00;59.10;;;;;;2321516;54;21493;-69
2023/08/22 09:32:30;;;;;;;4.30;2.80;;;30.10;59.00;;;;;;2341853;54;20953;-68
2023/08/22 09:35:00;;;;;;;4.12;2.70;;;30.20;58.90;;;;;;2341405;54;20952;-68
2023/08/22 09:37:36;;;;;;;4.00;2.70;;;30.20;58.80;;;;;;2587777;53;20970;-70
2023/08/22 09:40:10;;;;;;;3.75;2.75;;;30.30;58.50;;;;;;2318687;54;20933;-70
2023/08/22 09:42:40;;;;;;;4.82;2.67;;;30.30;58.40;;;;;;2304548;55;20911;-69
2023/08/22 09:45:08;;;;;;;4.40;2.70;;;30.40;58.00;;;;;;2336346;54;20936;-67
2023/08/22 09:47:39;;;;;;;4.25;2.90;;;30.50;57.90;;;;;;2341597;54;20921;-69
2023/08/22 09:50:06;;;;;;;4.62;2.72;;;30.50;58.00;;;;;;2580216;53;21102;-67
2023/08/22 09:52:36;;;;;;;4.80;2.97;;;30.60;57.90;;;;;;2341664;54;20973;-69
2023/08/22 09:55:05;;;;;;;4.18;3.05;;;30.70;57.70;;;;;;2340661;54;20961;-70
2023/08/22 09:57:34;;;;;;;4.22;2.70;;;30.70;57.80;;;;;;2332757;54;21021;-68
2023/08/22 10:00:05;;;;;;;4.47;2.60;;;30.80;57.50;;;;;;2564290;53;21042;-68
2023/08/22 10:02:34;;;;;;;3.70;2.05;;;30.80;57.10;;;;;;2306818;55;21604;-68
2023/08/22 10:05:02;;;;;;;3.47;2.00;;;30.90;57.00;;;;;;2334245;54;20928;-69
2023/08/22 10:07:29;;;;;;;4.07;2.42;;;30.90;56.90;;;;;;2556308;53;21466;-67
2023/08/22 10:09:55;;;;;;;3.95;2.55;;;31.00;57.10;;;;;;2333350;54;21004;-69
2023/08/22 10:12:23;;;;;;;3.47;2.45;;;31.10;57.10;;;;;;2339869;54;20997;-70
2023/08/22 10:14:56;;;;;;;4.15;2.12;;;31.10;56.80;;;;;;2341686;54;21402;-67
2023/08/22 10:17:26;;;;;;;3.28;2.15;;;31.20;56.60;;;;;;2328657;54;20982;-68
2023/08/22 10:19:52;;;;;;;4.00;2.30;;;31.30;56.40;;;;;;2331622;54;21840;-70
2023/08/22 10:22:19;;;;;;;3.47;2.10;;;31.30;56.30;;;;;;2319242;54;21462;-69
2023/08/22 10:24:49;;;;;;;4.25;2.28;;;31.40;56.30;;;;;;2322890;55;20945;-69
2023/08/22 10:27:17;;;;;;;3.90;2.40;;;31.40;55.90;;;;;;2338126;54;20976;-70
2023/08/22 10:29:45;;;;;;;3.22;2.10;;;31.50;55.80;;;;;;2586318;53;20934;-68
2023/08/22 10:32:20;;;;;;;2.95;1.90;;;31.50;55.70;;;;;;2341668;54;22557;-68
2023/08/22 10:35:32;;;;;;;4.20;2.35;;;31.60;54.90;;;;;;2341605;54;20928;-68
2023/08/22 10:37:58;;;;;;;3.60;2.40;;;31.60;54.90;;;;;;2342056;54;20945;-67
2023/08/22 10:40:27;;;;;;;3.25;2.05;;;31.70;55.10;;;;;;2327656;54;21771;-70
2023/08/22 10:43:06;;;;;;;2.97;1.85;;;31.70;54.90;;;;;;2330573;54;21831;-69
2023/08/22 10:45:40;;;;;;;3.15;1.98;;;31.80;54.70;;;;;;2555190;53;21012;-71
2023/08/22 10:48:13;;;;;;;3.55;2.10;;;31.80;54.80;;;;;;2341800;54;21895;-70
2023/08/22 10:50:41;;;;;;;3.67;2.03;;;31.80;54.50;;;;;;2587552;53;21033;-69
2023/08/22 10:53:44;;;;;;;4.05;2.00;;;31.90;54.80;;;;;;2341450;54;20940;-70
2023/08/22 10:56:20;;;;;;;3.20;2.12;;;31.90;54.30;;;;;;2587320;53;20988;-71
2023/08/22 10:59:08;;;;;;;3.80;1.92;;;32.00;54.30;;;;;;2341681;54;20973;-69
2023/08/22 11:01:35;;;;;;;4.60;2.17;;;32.00;54.30;;;;;;2342041;54;20977;-68
2023/08/22 11:04:03;;;;;;;3.08;2.03;;;32.10;54.40;;;;;;2314682;54;21045;-71
2023/08/22 11:06:30;;;;;;;4.87;2.60;;;32.20;54.40;;;;;;2560238;53;20999;-70
2023/08/22 11:08:56;;;;;;;3.53;2.50;;;32.20;54.30;;;;;;2341346;54;21876;-69
2023/08/22 11:11:23;;;;;;;3.53;2.10;;;32.30;54.20;;;;;;2588516;53;20953;-69
2023/08/22 11:13:49;;;;;;;5.90;2.70;;;32.30;54.30;;;;;;2341633;54;20941;-68
2023/08/22 11:16:26;;;;;;;3.53;2.15;;;32.30;54.20;;;;;;2588012;53;21981;-69
2023/08/22 11:18:55;;;;;;;4.78;1.92;;;32.40;54.10;;;;;;2587330;53;21012;-69
2023/08/22 11:21:22;;;;;;;3.53;2.12;;;32.50;53.90;;;;;;2341062;54;21004;-69
2023/08/22 11:23:48;;;;;;;3.95;2.60;;;32.50;53.60;;;;;;2340882;54;21024;-69
2023/08/22 11:26:20;;;;;;;4.12;2.30;;;32.60;53.40;;;;;;2340139;54;20965;-70
2023/08/22 11:28:49;;;;;;;3.05;2.20;;;32.60;53.30;;;;;;2586958;53;20981;-69
2023/08/22 11:31:16;;;;;;;3.83;2.35;;;32.70;53.20;;;;;;2341509;54;20965;-70
2023/08/22 11:33:47;;;;;;;3.42;2.20;;;32.70;53.00;;;;;;2341360;54;20981;-69
2023/08/22 11:36:17;;;;;;;4.15;2.20;;;32.80;52.70;;;;;;2341727;54;20976;-71
2023/08/22 11:38:45;;;;;;;3.78;2.33;;;32.80;52.70;;;;;;2341162;54;21935;-70
2023/08/22 11:41:11;;;;;;;3.47;2.20;;;32.80;52.90;;;;;;2587178;53;21794;-71
2023/08/22 11:43:50;;;;;;;3.42;2.12;;;32.90;53.00;;;;;;2342076;54;20945;-69
2023/08/22 11:46:19;;;;;;;3.28;1.92;;;32.90;52.30;;;;;;2588131;53;20937;-69
2023/08/22 11:48:45;;;;;;;2.92;1.92;;;32.90;52.40;;;;;;2586492;53;20956;-68
2023/08/22 11:51:21;;;;;;;5.55;1.95;;;33.00;52.30;;;;;;2556673;53;21535;-69
2023/08/22 11:53:51;;;;;;;3.85;2.37;;;33.00;52.10;;;;;;2341763;54;20944;-69
2023/08/22 11:56:18;;;;;;;4.03;2.20;;;33.10;52.40;;;;;;2559946;53;20970;-68
2023/08/22 11:58:52;;;;;;;3.58;1.90;;;33.10;52.30;;;;;;2336164;54;20948;-69
2023/08/22 12:01:20;;;;;;;3.17;2.00;;;33.20;51.90;;;;;;2586771;53;20968;-70
2023/08/22 12:03:47;;;;;;;3.03;1.70;;;33.20;52.00;;;;;;2341538;54;20961;-69
2023/08/22 12:06:15;;;;;;;3.40;2.15;;;33.20;52.00;;;;;;2340819;54;21076;-70
2023/08/22 12:08:42;;;;;;;2.97;1.67;;;33.30;51.70;;;;;;2587271;53;20956;-68
2023/08/22 12:11:24;;;;;;;3.65;2.05;;;33.30;51.80;;;;;;2341080;54;21016;-67
2023/08/22 12:13:52;;;;;;;4.35;2.20;;;33.30;51.10;;;;;;2587435;53;20970;-67
2023/08/22 12:16:19;;;;;;;3.70;2.03;;;33.40;51.50;;;;;;2341363;54;20961;-68
2023/08/22 12:18:45;;;;;;;3.22;1.87;;;33.40;51.50;;;;;;2340725;54;21040;-68
2023/08/22 12:21:13;;;;;;;2.60;1.65;;;33.40;51.50;;;;;;2340689;54;21729;-69
2023/08/22 12:23:40;;;;;;;4.05;2.15;;;33.50;51.60;;;;;;2587682;53;20965;-68
2023/08/22 12:26:07;;;;;;;3.50;1.90;;;33.60;51.80;;;;;;2587545;53;21630;-69
2023/08/22 12:28:34;;;;;;;3.20;1.98;;;33.60;51.80;;;;;;2341733;54;20965;-68
2023/08/22 12:31:01;;;;;;;4.72;1.80;;;33.60;51.60;;;;;;2341027;54;21186;-70
2023/08/22 12:33:30;;;;;;;4.55;2.30;;;33.70;51.60;;;;;;2341593;54;21489;-69
2023/08/22 12:35:56;;;;;;;2.87;1.90;;;33.70;51.30;;;;;;2341619;54;21000;-69
2023/08/22 12:38:23;;;;;;;3.85;1.95;;;33.70;51.10;;;;;;2587725;53;20960;-69
2023/08/22 12:40:50;;;;;;;3.60;1.92;;;33.80;51.20;;;;;;2341316;54;20989;-69
2023/08/22 12:43:16;;;;;;;3.97;1.75;;;33.80;51.00;;;;;;2341025;54;20921;-70
2023/08/22 12:45:42;;;;;;;3.10;2.00;;;33.90;51.20;;;;;;2341372;54;20965;-70
2023/08/22 12:48:09;;;;;;;2.92;1.95;;;33.90;51.00;;;;;;2588348;53;20941;-68
2023/08/22 12:50:35;;;;;;;3.10;1.85;;;33.90;50.90;;;;;;2342434;54;20932;-68
2023/08/22 12:53:08;;;;;;;3.15;2.03;;;33.90;50.70;;;;;;2587980;53;20940;-71